Time;durP1;ratioP1;P1;durP2;ratioP2;P2;SDS_P1;SDS_P2;PMS_P1;PMS_P2;Temp;Humidity;BMP_temperature;BMP_pressure;BME280_temperature;BME280_humidity;BME280_pressure;Samples;Min_cycle;Max_cycle;Signal;HPM_P1;HPM_P2
2023/01/09 00:00:57;;;;;;;;;;;;;;;;;;4978836;28;19932;-95
2023/01/09 00:03:28;;;;;;;;;;;;;;;;;;4977967;28;19968;-95
2023/01/09 00:05:55;;;;;;;;;;;;;;;;;;4977488;28;20460;-96
2023/01/09 00:08:24;;;;;;;;;;;;;;;;;;4977221;28;19969;-95
2023/01/09 00:10:50;;;;;;;;;;;;;;;;;;4993509;28;20016;-95
2023/01/09 00:13:17;;;;;;;;;;;;;;;;;;4977093;28;20022;-95
2023/01/09 00:15:43;;;;;;;;;;;;;;;;;;4978054;28;19949;-95
2023/01/09 00:18:09;;;;;;;;;;;;;;;;;;4993969;28;20389;-95
2023/01/09 00:20:35;;;;;;;;;;;;;;;;;;4976833;28;19922;-93
2023/01/09 00:23:01;;;;;;;;;;;;;;;;;;4976789;28;20020;-94
2023/01/09 00:25:28;;;;;;;;;;;;;;;;;;4993112;28;19921;-94
2023/01/09 00:27:54;;;;;;;;;;;;;;;;;;4976525;28;19922;-94
2023/01/09 00:30:20;;;;;;;;;;;;;;;;;;4976581;28;19944;-93
2023/01/09 00:32:49;;;;;;;;;;;;;;;;;;4977125;28;19922;-93
2023/01/09 00:35:17;;;;;;;;;;;;;;;;;;4976371;28;19928;-93
2023/01/09 00:37:47;;;;;;;;;;;;;;;;;;4992615;28;19972;-94
2023/01/09 00:40:16;;;;;;;;;;;;;;;;;;4992534;28;20431;-92
2023/01/09 00:42:42;;;;;;;;;;;;;;;;;;4976494;28;19926;-92
2023/01/09 00:45:08;;;;;;;;;;;;;;;;;;4976358;28;19928;-93
2023/01/09 00:47:34;;;;;;;;;;;;;;;;;;4976205;28;19968;-93
2023/01/09 00:50:00;;;;;;;;;;;;;;;;;;4976550;28;20213;-93
2023/01/09 00:52:29;;;;;;;;;;;;;;;;;;4976008;28;20128;-93
2023/01/09 00:54:55;;;;;;;;;;;;;;;;;;4976224;28;20005;-93
2023/01/09 00:57:21;;;;;;;;;;;;;;;;;;4976363;28;20373;-93
2023/01/09 00:59:47;;;;;;;;;;;;;;;;;;4976163;28;19926;-93
2023/01/09 01:02:13;;;;;;;;;;;;;;;;;;4976473;28;20368;-93
2023/01/09 01:07:40;;;;;;;;;;;;;;;;;;4992092;28;19922;-92
2023/01/09 01:10:06;;;;;;;;;;;;;;;;;;4975162;28;19922;-93
2023/01/09 01:12:32;;;;;;;;;;;;;;;;;;4975809;28;19926;-93
2023/01/09 01:14:58;;;;;;;;;;;;;;;;;;4975514;28;19926;-94
2023/01/09 01:17:24;;;;;;;;;;;;;;;;;;4975762;28;19929;-92
2023/01/09 01:19:49;;;;;;;;;;;;;;;;;;4975576;28;19926;-92
2023/01/09 01:22:15;;;;;;;;;;;;;;;;;;4975785;28;19922;-92
2023/01/09 01:24:41;;;;;;;;;;;;;;;;;;4975939;28;20296;-92
2023/01/09 01:27:07;;;;;;;;;;;;;;;;;;4991526;28;20013;-92
2023/01/09 01:29:33;;;;;;;;;;;;;;;;;;4991901;28;20432;-93
2023/01/09 01:31:59;;;;;;;;;;;;;;;;;;4975575;28;19921;-92
2023/01/09 01:34:25;;;;;;;;;;;;;;;;;;4975492;28;19944;-93
2023/01/09 01:36:51;;;;;;;;;;;;;;;;;;4991780;28;19921;-93
2023/01/09 01:39:17;;;;;;;;;;;;;;;;;;4975230;28;19933;-91
2023/01/09 01:41:44;;;;;;;;;;;;;;;;;;4976106;28;19953;-94
2023/01/09 01:44:13;;;;;;;;;;;;;;;;;;4976935;28;19928;-95
2023/01/09 01:49:32;;;;;;;;;;;;;;;;;;4992289;28;20381;-94
2023/01/09 01:51:58;;;;;;;;;;;;;;;;;;4976479;28;19938;-94
2023/01/09 01:54:24;;;;;;;;;;;;;;;;;;4976112;28;20444;-96
2023/01/09 01:56:52;;;;;;;;;;;;;;;;;;4976205;28;19977;-95
2023/01/09 01:59:18;;;;;;;;;;;;;;;;;;4976297;28;19929;-94
2023/01/09 02:01:44;;;;;;;;;;;;;;;;;;4976088;28;19922;-95
2023/01/09 02:04:19;;;;;;;;;;;;;;;;;;4977182;28;19968;-95
2023/01/09 02:06:45;;;;;;;;;;;;;;;;;;4976391;28;19922;-94
2023/01/09 02:09:14;;;;;;;;;;;;;;;;;;4975878;28;20329;-93
2023/01/09 02:11:40;;;;;;;;;;;;;;;;;;4976235;28;19929;-92
2023/01/09 02:14:06;;;;;;;;;;;;;;;;;;4991627;28;20389;-93
2023/01/09 02:16:33;;;;;;;;;;;;;;;;;;4991719;28;20358;-93
2023/01/09 02:18:59;;;;;;;;;;;;;;;;;;4975175;28;19926;-93
2023/01/09 02:21:25;;;;;;;;;;;;;;;;;;4976242;28;19922;-93
2023/01/09 02:23:55;;;;;;;;;;;;;;;;;;4995608;28;20407;-94
2023/01/09 02:26:24;;;;;;;;;;;;;;;;;;4979357;28;19922;-94
2023/01/09 02:28:50;;;;;;;;;;;;;;;;;;4995118;28;19921;-91
2023/01/09 02:31:16;;;;;;;;;;;;;;;;;;4979154;28;20052;-92
2023/01/09 02:33:42;;;;;;;;;;;;;;;;;;4978498;28;20012;-92
2023/01/09 02:36:08;;;;;;;;;;;;;;;;;;4978622;28;19921;-92
2023/01/09 02:38:34;;;;;;;;;;;;;;;;;;4995076;28;19995;-92
2023/01/09 02:41:00;;;;;;;;;;;;;;;;;;4978814;28;19968;-92
2023/01/09 02:43:26;;;;;;;;;;;;;;;;;;4978650;28;19928;-92
2023/01/09 02:45:52;;;;;;;;;;;;;;;;;;4978638;28;19926;-92
2023/01/09 02:48:19;;;;;;;;;;;;;;;;;;4994903;28;19921;-92
2023/01/09 02:50:45;;;;;;;;;;;;;;;;;;4978362;28;19984;-91
2023/01/09 02:53:11;;;;;;;;;;;;;;;;;;4978721;28;20388;-92
2023/01/09 02:55:37;;;;;;;;;;;;;;;;;;4978305;28;19928;-91
2023/01/09 02:58:03;;;;;;;;;;;;;;;;;;4977917;28;20269;-91
2023/01/09 03:00:29;;;;;;;;;;;;;;;;;;4978190;28;19926;-92
2023/01/09 03:02:56;;;;;;;;;;;;;;;;;;4978285;28;19929;-92
2023/01/09 03:05:22;;;;;;;;;;;;;;;;;;4978147;28;19933;-91
2023/01/09 03:07:48;;;;;;;;;;;;;;;;;;4978540;28;19922;-91
2023/01/09 03:10:14;;;;;;;;;;;;;;;;;;4994499;28;19922;-92
2023/01/09 03:12:40;;;;;;;;;;;;;;;;;;4978836;28;19922;-92
2023/01/09 03:15:06;;;;;;;;;;;;;;;;;;4977994;28;20040;-92
2023/01/09 03:17:32;;;;;;;;;;;;;;;;;;4977999;28;19922;-91
2023/01/09 03:19:59;;;;;;;;;;;;;;;;;;4977996;28;19926;-92
2023/01/09 03:22:25;;;;;;;;;;;;;;;;;;4978310;28;20024;-93
2023/01/09 03:24:51;;;;;;;;;;;;;;;;;;4978934;28;20381;-92
2023/01/09 03:27:17;;;;;;;;;;;;;;;;;;4993974;28;19930;-93
2023/01/09 03:29:44;;;;;;;;;;;;;;;;;;4977878;28;20423;-93
2023/01/09 03:32:10;;;;;;;;;;;;;;;;;;4977607;28;19928;-93
2023/01/09 03:34:36;;;;;;;;;;;;;;;;;;4993244;28;20000;-93
2023/01/09 03:37:04;;;;;;;;;;;;;;;;;;4993889;28;19948;-93
2023/01/09 03:39:34;;;;;;;;;;;;;;;;;;4977423;28;19933;-93
2023/01/09 03:42:00;;;;;;;;;;;;;;;;;;4978040;28;19929;-93
2023/01/09 03:44:26;;;;;;;;;;;;;;;;;;4994586;28;19921;-93
2023/01/09 03:46:52;;;;;;;;;;;;;;;;;;4978635;28;19969;-92
2023/01/09 03:49:18;;;;;;;;;;;;;;;;;;4994421;28;19976;-92
2023/01/09 03:51:45;;;;;;;;;;;;;;;;;;4993926;28;19922;-93
2023/01/09 03:54:11;;;;;;;;;;;;;;;;;;4994492;28;19926;-93
2023/01/09 03:56:37;;;;;;;;;;;;;;;;;;4978014;28;20348;-93
2023/01/09 03:59:06;;;;;;;;;;;;;;;;;;4977852;28;20016;-93
2023/01/09 04:01:34;;;;;;;;;;;;;;;;;;4994221;28;19922;-93
2023/01/09 04:04:01;;;;;;;;;;;;;;;;;;4977843;28;19928;-93
2023/01/09 04:06:34;;;;;;;;;;;;;;;;;;4993446;28;19922;-93
2023/01/09 04:09:03;;;;;;;;;;;;;;;;;;5045358;23;19976;-93
2023/01/09 04:11:29;;;;;;;;;;;;;;;;;;5036051;28;20394;-93
2023/01/09 04:13:57;;;;;;;;;;;;;;;;;;5019997;28;19928;-93
2023/01/09 04:16:27;;;;;;;;;;;;;;;;;;5053248;28;19921;-93
2023/01/09 04:18:53;;;;;;;;;;;;;;;;;;5019664;28;19928;-93
2023/01/09 04:21:19;;;;;;;;;;;;;;;;;;5019362;28;19927;-93
2023/01/09 04:23:48;;;;;;;;;;;;;;;;;;5036203;28;19921;-93
2023/01/09 04:26:14;;;;;;;;;;;;;;;;;;5035587;28;20066;-94
2023/01/09 04:28:44;;;;;;;;;;;;;;;;;;5035941;28;19921;-93
2023/01/09 04:31:11;;;;;;;;;;;;;;;;;;5019804;28;19925;-93
2023/01/09 04:33:38;;;;;;;;;;;;;;;;;;5019174;28;19927;-93
2023/01/09 04:36:04;;;;;;;;;;;;;;;;;;5018888;28;19928;-93
2023/01/09 04:38:34;;;;;;;;;;;;;;;;;;5019093;28;19921;-93
2023/01/09 04:41:07;;;;;;;;;;;;;;;;;;5140943;22;19931;-92
2023/01/09 04:43:41;;;;;;;;;;;;;;;;;;4999925;28;19975;-92
2023/01/09 04:46:06;;;;;;;;;;;;;;;;;;5000226;28;20405;-92
2023/01/09 04:48:32;;;;;;;;;;;;;;;;;;4999259;28;19956;-92
2023/01/09 04:50:58;;;;;;;;;;;;;;;;;;4999502;28;19957;-91
2023/01/09 04:53:28;;;;;;;;;;;;;;;;;;5015462;28;20024;-93
2023/01/09 04:55:54;;;;;;;;;;;;;;;;;;4999115;28;20381;-92
2023/01/09 04:58:20;;;;;;;;;;;;;;;;;;4999247;28;19972;-93
2023/01/09 05:00:45;;;;;;;;;;;;;;;;;;4998862;28;19986;-93
2023/01/09 05:03:16;;;;;;;;;;;;;;;;;;4998966;28;20375;-93
2023/01/09 05:06:01;;;;;;;;;;;;;;;;;;5015576;28;19956;-93
2023/01/09 05:08:36;;;;;;;;;;;;;;;;;;4999210;28;19925;-94
2023/01/09 05:11:02;;;;;;;;;;;;;;;;;;5015293;28;19976;-93
2023/01/09 05:13:28;;;;;;;;;;;;;;;;;;4999269;28;19925;-92
2023/01/09 05:15:55;;;;;;;;;;;;;;;;;;4999537;28;19921;-94
2023/01/09 05:18:23;;;;;;;;;;;;;;;;;;5098049;23;19975;-93
2023/01/09 05:20:52;;;;;;;;;;;;;;;;;;4992421;28;20262;-93
2023/01/09 05:23:28;;;;;;;;;;;;;;;;;;4992428;28;19922;-93
2023/01/09 05:25:58;;;;;;;;;;;;;;;;;;4976567;28;19922;-93
2023/01/09 05:28:47;;;;;;;;;;;;;;;;;;4992683;28;19922;-93
2023/01/09 05:31:19;;;;;;;;;;;;;;;;;;4976480;28;20383;-94
2023/01/09 05:33:46;;;;;;;;;;;;;;;;;;4976115;28;19930;-93
2023/01/09 05:36:41;;;;;;;;;;;;;;;;;;4991610;28;19929;-93
2023/01/09 05:39:39;;;;;;;;;;;;;;;;;;4992180;28;19941;-94
2023/01/09 05:43:01;;;;;;;;;;;;;;;;;;4991184;28;19921;-93
2023/01/09 05:46:06;;;;;;;;;;;;;;;;;;4993384;28;20428;-93
2023/01/09 05:48:33;;;;;;;;;;;;;;;;;;4975828;28;19925;-94
2023/01/09 05:51:43;;;;;;;;;;;;;;;;;;4990587;28;19922;-94
2023/01/09 05:54:20;;;;;;;;;;;;;;;;;;4993469;28;19941;-92
2023/01/09 05:56:46;;;;;;;;;;;;;;;;;;4977152;28;19937;-92
2023/01/09 05:59:14;;;;;;;;;;;;;;;;;;4979268;28;19926;-92
2023/01/09 06:01:40;;;;;;;;;;;;;;;;;;4994867;28;19929;-92
2023/01/09 06:04:06;;;;;;;;;;;;;;;;;;4979718;28;19926;-91
2023/01/09 06:06:33;;;;;;;;;;;;;;;;;;4996999;28;19968;-92
2023/01/09 06:08:59;;;;;;;;;;;;;;;;;;4979181;28;19965;-92
2023/01/09 06:11:26;;;;;;;;;;;;;;;;;;4979359;28;19992;-91
2023/01/09 06:13:52;;;;;;;;;;;;;;;;;;4979039;28;20008;-92
2023/01/09 06:16:18;;;;;;;;;;;;;;;;;;4979287;28;20013;-92
2023/01/09 06:18:44;;;;;;;;;;;;;;;;;;4978688;28;20348;-92
2023/01/09 06:21:10;;;;;;;;;;;;;;;;;;4978915;28;19977;-92
2023/01/09 06:23:36;;;;;;;;;;;;;;;;;;4978929;28;19966;-91
2023/01/09 06:26:03;;;;;;;;;;;;;;;;;;4978939;28;19921;-92
2023/01/09 06:28:29;;;;;;;;;;;;;;;;;;4978871;28;19976;-92
2023/01/09 06:30:55;;;;;;;;;;;;;;;;;;4995198;28;19925;-92
2023/01/09 06:33:21;;;;;;;;;;;;;;;;;;4978775;28;19929;-93
2023/01/09 06:35:46;;;;;;;;;;;;;;;;;;4978838;28;19944;-92
2023/01/09 06:38:21;;;;;;;;;;;;;;;;;;4979920;28;19941;-92
2023/01/09 06:40:49;;;;;;;;;;;;;;;;;;4994708;28;19922;-93
2023/01/09 06:43:14;;;;;;;;;;;;;;;;;;4978497;28;19936;-92
2023/01/09 06:45:41;;;;;;;;;;;;;;;;;;4994857;28;19921;-93
2023/01/09 06:48:07;;;;;;;;;;;;;;;;;;4978379;28;19928;-91
2023/01/09 06:50:33;;;;;;;;;;;;;;;;;;4978493;28;19929;-92
2023/01/09 06:52:59;;;;;;;;;;;;;;;;;;4995063;28;19977;-92
2023/01/09 06:55:25;;;;;;;;;;;;;;;;;;4978256;28;19979;-92
2023/01/09 06:57:51;;;;;;;;;;;;;;;;;;4978065;28;19926;-92
2023/01/09 07:00:17;;;;;;;;;;;;;;;;;;4978076;28;19922;-92
2023/01/09 07:02:50;;;;;;;;;;;;;;;;;;4994748;28;19965;-94
2023/01/09 07:05:19;;;;;;;;;;;;;;;;;;4995342;28;19968;-95
2023/01/09 07:07:45;;;;;;;;;;;;;;;;;;4977487;28;19925;-95
2023/01/09 07:10:11;;;;;;;;;;;;;;;;;;4980792;28;20047;-92
2023/01/09 07:12:37;;;;;;;;;;;;;;;;;;4994773;28;19928;-95
2023/01/09 07:15:02;;;;;;;;;;;;;;;;;;4978406;28;19972;-94
2023/01/09 07:17:29;;;;;;;;;;;;;;;;;;4994175;28;20313;-93
2023/01/09 07:19:55;;;;;;;;;;;;;;;;;;4978731;28;19930;-95
2023/01/09 07:22:39;;;;;;;;;;;;;;;;;;4995078;28;20364;-95
2023/01/09 07:25:05;;;;;;;;;;;;;;;;;;4979132;28;19922;-93
2023/01/09 07:27:31;;;;;;;;;;;;;;;;;;4977906;28;19928;-93
2023/01/09 07:29:57;;;;;;;;;;;;;;;;;;4978363;28;20011;-93
2023/01/09 07:32:23;;;;;;;;;;;;;;;;;;4977730;28;20367;-93
2023/01/09 07:34:50;;;;;;;;;;;;;;;;;;4977858;28;20435;-93
2023/01/09 07:37:16;;;;;;;;;;;;;;;;;;4977730;28;19932;-93
2023/01/09 07:39:43;;;;;;;;;;;;;;;;;;4977849;28;20359;-93
2023/01/09 07:42:09;;;;;;;;;;;;;;;;;;4978143;28;19928;-93
2023/01/09 07:44:35;;;;;;;;;;;;;;;;;;4978897;28;19989;-94
2023/01/09 07:47:01;;;;;;;;;;;;;;;;;;4982188;28;20369;-93
2023/01/09 07:52:06;;;;;;;;;;;;;;;;;;5161589;22;19929;-93
2023/01/09 07:54:32;;;;;;;;;;;;;;;;;;5003360;28;19921;-92
2023/01/09 07:56:58;;;;;;;;;;;;;;;;;;5001015;28;19925;-91
2023/01/09 07:59:28;;;;;;;;;;;;;;;;;;5001032;28;19980;-92
2023/01/09 08:01:54;;;;;;;;;;;;;;;;;;5000115;28;19975;-94
2023/01/09 08:04:20;;;;;;;;;;;;;;;;;;4999434;28;19922;-92
2023/01/09 08:06:46;;;;;;;;;;;;;;;;;;5000544;28;19928;-92
2023/01/09 08:09:15;;;;;;;;;;;;;;;;;;5000443;28;19921;-94
2023/01/09 08:11:41;;;;;;;;;;;;;;;;;;5000123;28;20015;-94
2023/01/09 08:14:07;;;;;;;;;;;;;;;;;;5000261;28;19964;-95
2023/01/09 08:16:33;;;;;;;;;;;;;;;;;;5000510;28;19983;-94
2023/01/09 08:19:01;;;;;;;;;;;;;;;;;;5000523;28;19928;-94
2023/01/09 08:21:29;;;;;;;;;;;;;;;;;;5017334;28;19980;-92
2023/01/09 08:23:57;;;;;;;;;;;;;;;;;;5000538;28;19921;-94
2023/01/09 08:26:23;;;;;;;;;;;;;;;;;;5016422;28;19925;-94
2023/01/09 08:28:53;;;;;;;;;;;;;;;;;;5000530;28;19936;-94
2023/01/09 08:31:19;;;;;;;;;;;;;;;;;;4999817;28;20474;-94
2023/01/09 08:33:46;;;;;;;;;;;;;;;;;;5016199;28;19968;-94
2023/01/09 08:36:12;;;;;;;;;;;;;;;;;;4999633;28;19975;-93
2023/01/09 08:38:38;;;;;;;;;;;;;;;;;;5015833;28;19927;-94
2023/01/09 08:47:04;;;;;;;;;;;;;;;;;;4999634;28;19977;-93
2023/01/09 08:49:22;;;;;;;;;;;;;;;;;;5021305;28;19921;-93
2023/01/09 08:51:48;;;;;;;;;;;;;;;;;;4995780;28;19932;-93
2023/01/09 08:54:14;;;;;;;;;;;;;;;;;;5000060;28;20295;-94
2023/01/09 08:56:40;;;;;;;;;;;;;;;;;;4996938;28;20021;-94
2023/01/09 08:59:06;;;;;;;;;;;;;;;;;;4996143;28;19976;-94
2023/01/09 09:01:32;;;;;;;;;;;;;;;;;;4996014;28;19925;-93
2023/01/09 09:04:01;;;;;;;;;;;;;;;;;;5012879;28;19928;-95
2023/01/09 09:06:27;;;;;;;;;;;;;;;;;;5009534;28;19921;-95
2023/01/09 09:08:56;;;;;;;;;;;;;;;;;;4995712;28;19983;-95
2023/01/09 09:11:22;;;;;;;;;;;;;;;;;;5012859;28;20372;-95
2023/01/09 09:13:47;;;;;;;;;;;;;;;;;;4996174;28;19928;-94
2023/01/09 09:16:16;;;;;;;;;;;;;;;;;;4996454;28;19921;-94
2023/01/09 09:18:45;;;;;;;;;;;;;;;;;;4995786;28;19921;-95
2023/01/09 09:21:11;;;;;;;;;;;;;;;;;;4995675;28;20005;-94
2023/01/09 09:23:43;;;;;;;;;;;;;;;;;;5012662;28;19921;-94
2023/01/09 09:26:08;;;;;;;;;;;;;;;;;;4996847;28;20339;-94
2023/01/09 09:28:34;;;;;;;;;;;;;;;;;;4997529;28;19967;-93
2023/01/09 09:31:00;;;;;;;;;;;;;;;;;;5010624;28;20331;-94
2023/01/09 09:33:29;;;;;;;;;;;;;;;;;;5011900;28;19953;-94
2023/01/09 09:35:55;;;;;;;;;;;;;;;;;;5011715;28;20315;-93
2023/01/09 09:38:21;;;;;;;;;;;;;;;;;;5013360;28;19922;-95
2023/01/09 09:40:47;;;;;;;;;;;;;;;;;;4995567;28;19969;-94
2023/01/09 09:46:00;;;;;;;;;;;;;;;;;;5012334;28;19965;-94
2023/01/09 09:48:26;;;;;;;;;;;;;;;;;;4995447;28;19996;-95
2023/01/09 09:50:52;;;;;;;;;;;;;;;;;;4995908;28;19952;-95
2023/01/09 09:53:18;;;;;;;;;;;;;;;;;;4995999;28;19921;-96
2023/01/09 09:55:50;;;;;;;;;;;;;;;;;;4997410;28;19922;-94
2023/01/09 09:58:16;;;;;;;;;;;;;;;;;;4999564;28;19929;-95
2023/01/09 10:00:42;;;;;;;;;;;;;;;;;;5000445;28;19976;-95
2023/01/09 10:03:17;;;;;;;;;;;;;;;;;;5002392;28;19930;-96
2023/01/09 10:05:46;;;;;;;;;;;;;;;;;;5003954;28;19944;-95
2023/01/09 10:08:18;;;;;;;;;;;;;;;;;;4997650;28;19989;-92
2023/01/09 10:10:47;;;;;;;;;;;;;;;;;;4995587;28;19925;-94
2023/01/09 10:16:00;;;;;;;;;;;;;;;;;;5013120;28;19922;-93
2023/01/09 10:18:29;;;;;;;;;;;;;;;;;;4979996;28;20085;-96
2023/01/09 10:20:55;;;;;;;;;;;;;;;;;;4975702;28;19937;-95
2023/01/09 10:23:21;;;;;;;;;;;;;;;;;;4976127;28;20012;-94
2023/01/09 10:25:47;;;;;;;;;;;;;;;;;;4975514;28;19921;-94
2023/01/09 10:28:13;;;;;;;;;;;;;;;;;;4975741;28;19922;-94
2023/01/09 10:30:39;;;;;;;;;;;;;;;;;;4975700;28;19921;-94
2023/01/09 10:33:05;;;;;;;;;;;;;;;;;;4977043;28;19945;-93
2023/01/09 10:35:31;;;;;;;;;;;;;;;;;;4976519;28;19922;-93
2023/01/09 10:37:57;;;;;;;;;;;;;;;;;;4975277;28;20391;-95
2023/01/09 10:40:22;;;;;;;;;;;;;;;;;;4977473;28;19972;-93
2023/01/09 10:42:48;;;;;;;;;;;;;;;;;;4978210;28;19973;-94
2023/01/09 10:45:14;;;;;;;;;;;;;;;;;;4981488;28;19922;-93
2023/01/09 10:47:42;;;;;;;;;;;;;;;;;;4979173;28;19922;-92
2023/01/09 10:50:09;;;;;;;;;;;;;;;;;;4979255;28;20280;-93
2023/01/09 10:52:37;;;;;;;;;;;;;;;;;;4980333;28;19926;-95
2023/01/09 10:55:03;;;;;;;;;;;;;;;;;;4982767;28;20288;-93
2023/01/09 10:57:29;;;;;;;;;;;;;;;;;;4978995;28;19921;-92
2023/01/09 10:59:55;;;;;;;;;;;;;;;;;;4978393;28;20012;-92
2023/01/09 11:02:21;;;;;;;;;;;;;;;;;;4994752;28;19957;-93
2023/01/09 11:04:46;;;;;;;;;;;;;;;;;;4978776;28;19968;-92
2023/01/09 11:07:12;;;;;;;;;;;;;;;;;;4996722;28;20416;-90
2023/01/09 11:09:38;;;;;;;;;;;;;;;;;;4994081;28;19968;-90
2023/01/09 11:12:04;;;;;;;;;;;;;;;;;;4977987;28;20013;-91
2023/01/09 11:14:30;;;;;;;;;;;;;;;;;;4979397;28;19976;-93
2023/01/09 11:16:56;;;;;;;;;;;;;;;;;;4978209;28;20008;-92
2023/01/09 11:19:22;;;;;;;;;;;;;;;;;;4995389;28;19925;-94
2023/01/09 11:21:48;;;;;;;;;;;;;;;;;;4978359;28;19976;-95
2023/01/09 11:24:14;;;;;;;;;;;;;;;;;;4979774;28;19925;-94
2023/01/09 11:26:40;;;;;;;;;;;;;;;;;;4979143;28;19945;-92
2023/01/09 11:29:06;;;;;;;;;;;;;;;;;;4977677;28;19925;-91
2023/01/09 11:31:32;;;;;;;;;;;;;;;;;;4994307;28;20451;-94
2023/01/09 11:33:58;;;;;;;;;;;;;;;;;;4977980;28;19976;-94
2023/01/09 11:36:24;;;;;;;;;;;;;;;;;;4977824;28;19926;-93
2023/01/09 11:38:50;;;;;;;;;;;;;;;;;;4977572;28;19921;-94
2023/01/09 11:41:16;;;;;;;;;;;;;;;;;;4978427;28;19933;-94
2023/01/09 11:43:42;;;;;;;;;;;;;;;;;;4978057;28;19928;-94
2023/01/09 11:46:08;;;;;;;;;;;;;;;;;;4977992;28;19928;-94
2023/01/09 11:48:34;;;;;;;;;;;;;;;;;;4977768;28;19933;-95
2023/01/09 11:51:00;;;;;;;;;;;;;;;;;;4984648;28;19926;-94
2023/01/09 11:53:26;;;;;;;;;;;;;;;;;;5013320;28;20052;-94
2023/01/09 11:55:52;;;;;;;;;;;;;;;;;;4997516;28;19928;-93
2023/01/09 11:58:21;;;;;;;;;;;;;;;;;;5013944;28;19972;-96
2023/01/09 12:00:47;;;;;;;;;;;;;;;;;;4996980;28;19925;-95
2023/01/09 12:03:13;;;;;;;;;;;;;;;;;;4997372;28;19922;-94
2023/01/09 12:05:39;;;;;;;;;;;;;;;;;;4997404;28;20055;-95
2023/01/09 12:08:05;;;;;;;;;;;;;;;;;;4997429;28;19928;-94
2023/01/09 12:10:31;;;;;;;;;;;;;;;;;;4999605;28;19921;-94
2023/01/09 12:12:57;;;;;;;;;;;;;;;;;;4997421;28;19922;-95
2023/01/09 12:15:41;;;;;;;;;;;;;;;;;;5016897;28;20368;-95
2023/01/09 12:18:07;;;;;;;;;;;;;;;;;;5004830;28;19937;-92
2023/01/09 12:28:58;;;;;;;;;;;;;;;;;;5021587;28;19979;-92
2023/01/09 12:31:24;;;;;;;;;;;;;;;;;;5007008;28;19925;-90
2023/01/09 12:33:50;;;;;;;;;;;;;;;;;;5016914;28;19921;-93
2023/01/09 12:36:19;;;;;;;;;;;;;;;;;;5009059;28;20380;-92
2023/01/09 12:38:47;;;;;;;;;;;;;;;;;;4999652;28;20396;-93
2023/01/09 12:49:00;;;;;;;;;;;;;;;;;;5102080;22;19940;-92
2023/01/09 12:51:26;;;;;;;;;;;;;;;;;;5000109;28;20452;-93
2023/01/09 12:53:52;;;;;;;;;;;;;;;;;;5000083;28;20351;-93
2023/01/09 12:56:18;;;;;;;;;;;;;;;;;;5000279;28;19921;-92
2023/01/09 12:58:44;;;;;;;;;;;;;;;;;;5015593;28;19932;-92
2023/01/09 13:04:02;;;;;;;;;;;;;;;;;;5033185;22;19940;-93
2023/01/09 13:06:29;;;;;;;;;;;;;;;;;;5015090;28;19929;-95
2023/01/09 13:08:57;;;;;;;;;;;;;;;;;;4999735;28;19928;-94
2023/01/09 13:11:23;;;;;;;;;;;;;;;;;;4999955;28;19924;-93
2023/01/09 13:13:48;;;;;;;;;;;;;;;;;;5000056;28;19921;-94
2023/01/09 13:16:14;;;;;;;;;;;;;;;;;;4999851;28;19921;-94
2023/01/09 13:18:40;;;;;;;;;;;;;;;;;;4998802;28;19952;-92
2023/01/09 13:21:06;;;;;;;;;;;;;;;;;;4998799;28;19935;-92
2023/01/09 13:23:33;;;;;;;;;;;;;;;;;;5016427;28;19983;-92
2023/01/09 13:26:01;;;;;;;;;;;;;;;;;;5000163;28;19921;-92
2023/01/09 13:28:27;;;;;;;;;;;;;;;;;;4999419;28;20343;-92
2023/01/09 13:30:53;;;;;;;;;;;;;;;;;;4999020;28;20020;-92
2023/01/09 13:33:19;;;;;;;;;;;;;;;;;;4998551;28;19922;-91
2023/01/09 13:35:45;;;;;;;;;;;;;;;;;;4998904;28;19944;-90
2023/01/09 13:38:11;;;;;;;;;;;;;;;;;;5014861;28;20165;-89
2023/01/09 13:40:37;;;;;;;;;;;;;;;;;;4998278;28;19925;-92
2023/01/09 13:43:03;;;;;;;;;;;;;;;;;;4998630;28;19921;-91
2023/01/09 13:45:32;;;;;;;;;;;;;;;;;;4998601;28;19925;-94
2023/01/09 13:47:58;;;;;;;;;;;;;;;;;;4999231;28;19925;-95
2023/01/09 13:50:23;;;;;;;;;;;;;;;;;;4998778;28;19921;-93
2023/01/09 13:52:49;;;;;;;;;;;;;;;;;;4998903;28;20074;-92
2023/01/09 13:55:15;;;;;;;;;;;;;;;;;;5014659;28;20094;-92
2023/01/09 13:57:41;;;;;;;;;;;;;;;;;;4997868;28;19928;-90
2023/01/09 14:00:08;;;;;;;;;;;;;;;;;;5014576;28;19929;-89
2023/01/09 14:02:35;;;;;;;;;;;;;;;;;;5011226;28;19926;-92
2023/01/09 14:05:01;;;;;;;;;;;;;;;;;;4995104;28;20368;-92
2023/01/09 14:07:27;;;;;;;;;;;;;;;;;;4996122;28;19944;-92
2023/01/09 14:09:53;;;;;;;;;;;;;;;;;;5011738;28;19922;-91
2023/01/09 14:12:19;;;;;;;;;;;;;;;;;;4995077;28;19927;-90
2023/01/09 14:14:45;;;;;;;;;;;;;;;;;;4994854;28;19963;-92
2023/01/09 14:17:12;;;;;;;;;;;;;;;;;;4996236;28;19922;-96
2023/01/09 14:19:44;;;;;;;;;;;;;;;;;;5001063;28;20114;-94
2023/01/09 14:22:10;;;;;;;;;;;;;;;;;;4999763;28;20388;-94
2023/01/09 14:24:37;;;;;;;;;;;;;;;;;;4999488;28;19948;-94
2023/01/09 14:27:03;;;;;;;;;;;;;;;;;;4999367;28;19921;-94
2023/01/09 14:29:32;;;;;;;;;;;;;;;;;;5014800;28;19928;-90
2023/01/09 14:31:58;;;;;;;;;;;;;;;;;;4998551;28;20012;-90
2023/01/09 14:34:24;;;;;;;;;;;;;;;;;;4998593;28;19928;-90
2023/01/09 14:36:50;;;;;;;;;;;;;;;;;;5014649;28;19922;-90
2023/01/09 14:39:16;;;;;;;;;;;;;;;;;;4998056;28;19921;-90
2023/01/09 14:42:04;;;;;;;;;;;;;;;;;;4998146;28;20008;-90
2023/01/09 14:44:30;;;;;;;;;;;;;;;;;;4998110;28;20364;-92
2023/01/09 14:46:56;;;;;;;;;;;;;;;;;;4998230;28;20000;-92
2023/01/09 14:49:25;;;;;;;;;;;;;;;;;;5015173;28;20300;-92
2023/01/09 14:51:51;;;;;;;;;;;;;;;;;;5015165;28;19921;-93
2023/01/09 14:54:23;;;;;;;;;;;;;;;;;;4999292;28;19971;-95
2023/01/09 14:56:51;;;;;;;;;;;;;;;;;;5015203;28;20007;-94
2023/01/09 14:59:20;;;;;;;;;;;;;;;;;;4998858;28;19921;-95
2023/01/09 15:01:50;;;;;;;;;;;;;;;;;;5001867;28;19967;-96
2023/01/09 15:04:16;;;;;;;;;;;;;;;;;;5021190;28;20257;-94
2023/01/09 15:09:32;;;;;;;;;;;;;;;;;;5016300;23;19925;-96
2023/01/09 15:12:02;;;;;;;;;;;;;;;;;;5000376;28;19972;-96
2023/01/09 15:14:28;;;;;;;;;;;;;;;;;;4998957;28;19925;-96
2023/01/09 15:16:54;;;;;;;;;;;;;;;;;;4998717;28;19929;-94
2023/01/09 15:19:23;;;;;;;;;;;;;;;;;;4998998;28;21895;-96
2023/01/09 15:21:49;;;;;;;;;;;;;;;;;;4998526;28;19925;-94
2023/01/09 15:24:15;;;;;;;;;;;;;;;;;;5013845;28;20357;-93
2023/01/09 15:26:44;;;;;;;;;;;;;;;;;;4998413;28;19941;-93
2023/01/09 15:29:10;;;;;;;;;;;;;;;;;;5014109;28;19971;-95
2023/01/09 15:31:38;;;;;;;;;;;;;;;;;;5015688;28;19925;-95
2023/01/09 15:34:04;;;;;;;;;;;;;;;;;;5001154;28;19944;-96
2023/01/09 15:36:51;;;;;;;;;;;;;;;;;;5002351;28;19922;-96
2023/01/09 15:39:20;;;;;;;;;;;;;;;;;;5016465;28;19922;-95
2023/01/09 15:44:48;;;;;;;;;;;;;;;;;;5014539;28;20375;-93
2023/01/09 15:47:17;;;;;;;;;;;;;;;;;;5014090;28;20016;-94
2023/01/09 16:00:06;;;;;;;;;;;;;;;;;;5015887;28;19956;-93
2023/01/09 16:05:17;;;;;;;;;;;;;;;;;;4998603;28;20388;-92
2023/01/09 16:07:43;;;;;;;;;;;;;;;;;;4991448;28;19984;-93
2023/01/09 16:10:10;;;;;;;;;;;;;;;;;;4962321;28;19926;-91
2023/01/09 16:12:36;;;;;;;;;;;;;;;;;;4977367;28;19921;-92
2023/01/09 16:15:02;;;;;;;;;;;;;;;;;;4977294;28;19922;-91
2023/01/09 16:17:32;;;;;;;;;;;;;;;;;;4960747;28;19929;-93
2023/01/09 16:19:58;;;;;;;;;;;;;;;;;;4977195;28;19926;-91
2023/01/09 16:22:24;;;;;;;;;;;;;;;;;;4961521;28;20085;-92
2023/01/09 16:24:54;;;;;;;;;;;;;;;;;;4981417;28;19922;-91
2023/01/09 16:27:21;;;;;;;;;;;;;;;;;;4981483;28;19922;-92
2023/01/09 16:29:48;;;;;;;;;;;;;;;;;;4986826;28;19921;-94
2023/01/09 16:32:17;;;;;;;;;;;;;;;;;;4964225;28;19921;-94
2023/01/09 16:34:44;;;;;;;;;;;;;;;;;;4976625;28;20009;-93
2023/01/09 16:37:10;;;;;;;;;;;;;;;;;;4964684;28;19977;-93
2023/01/09 16:39:37;;;;;;;;;;;;;;;;;;4961920;28;20063;-94
2023/01/09 16:43:03;;;;;;;;;;;;;;;;;;4962147;28;19992;-94
2023/01/09 16:44:58;;;;;;;;;;;;;;;;;;4965826;28;19928;-91
2023/01/09 16:47:25;;;;;;;;;;;;;;;;;;4977038;28;19928;-91
2023/01/09 16:49:52;;;;;;;;;;;;;;;;;;4960279;28;20284;-92
2023/01/09 16:52:21;;;;;;;;;;;;;;;;;;4994392;28;19922;-91
2023/01/09 16:54:47;;;;;;;;;;;;;;;;;;4961881;28;20291;-90
2023/01/09 16:57:14;;;;;;;;;;;;;;;;;;4976589;28;20312;-91
2023/01/09 16:59:39;;;;;;;;;;;;;;;;;;4960959;28;20364;-94
2023/01/09 17:02:05;;;;;;;;;;;;;;;;;;4961309;28;19970;-91
2023/01/09 17:04:31;;;;;;;;;;;;;;;;;;4976574;28;20402;-92
2023/01/09 17:06:58;;;;;;;;;;;;;;;;;;4960796;28;20061;-91
2023/01/09 17:09:26;;;;;;;;;;;;;;;;;;4963082;28;19922;-94
2023/01/09 17:11:52;;;;;;;;;;;;;;;;;;4960504;28;20266;-94
2023/01/09 17:14:18;;;;;;;;;;;;;;;;;;4961171;28;19929;-96
2023/01/09 17:16:45;;;;;;;;;;;;;;;;;;4961122;28;20020;-96
2023/01/09 17:19:11;;;;;;;;;;;;;;;;;;5280094;23;19980;-96
2023/01/09 17:21:37;;;;;;;;;;;;;;;;;;4977580;28;19965;-96
2023/01/09 17:29:36;;;;;;;;;;;;;;;;;;4971788;28;19929;-92
2023/01/09 17:32:02;;;;;;;;;;;;;;;;;;4959878;28;19929;-93
2023/01/09 17:34:38;;;;;;;;;;;;;;;;;;4967183;28;19922;-95
2023/01/09 17:37:07;;;;;;;;;;;;;;;;;;4956774;28;19973;-96
2023/01/09 17:39:33;;;;;;;;;;;;;;;;;;4940268;29;19923;-95
2023/01/09 17:42:00;;;;;;;;;;;;;;;;;;4938045;29;19949;-93
2023/01/09 17:44:33;;;;;;;;;;;;;;;;;;4953364;29;19923;-92
2023/01/09 17:46:59;;;;;;;;;;;;;;;;;;4937273;29;19969;-92
2023/01/09 17:49:26;;;;;;;;;;;;;;;;;;4937286;29;19923;-92
2023/01/09 17:51:52;;;;;;;;;;;;;;;;;;4937729;29;19930;-92